sensor_id;sensor_type;location;lat;lon;timestamp;pressure;altitude;pressure_sealevel;temperature;humidity
6150;BME280;3106;42.670;23.318;2024-03-23T00:53:05;94476.91;;;6.42;76.41
6150;BME280;3106;42.670;23.318;2024-03-23T00:55:30;94483.59;;;6.40;76.41
6150;BME280;3106;42.670;23.318;2024-03-23T00:58:00;94477.03;;;6.37;76.30
6150;BME280;3106;42.670;23.318;2024-03-23T01:00:28;94474.72;;;6.36;75.66
6150;BME280;3106;42.670;23.318;2024-03-23T01:02:55;94468.13;;;6.33;75.87
6150;BME280;3106;42.670;23.318;2024-03-23T01:05:24;94463.31;;;6.27;76.47
6150;BME280;3106;42.670;23.318;2024-03-23T01:07:50;94471.72;;;6.37;76.46
6150;BME280;3106;42.670;23.318;2024-03-23T01:10:17;94475.47;;;6.36;77.09
6150;BME280;3106;42.670;23.318;2024-03-23T01:12:44;94438.50;;;6.14;77.09
6150;BME280;3106;42.670;23.318;2024-03-23T01:15:12;94458.00;;;6.27;76.65
6150;BME280;3106;42.670;23.318;2024-03-23T01:17:38;94459.72;;;6.31;76.97
6150;BME280;3106;42.670;23.318;2024-03-23T01:20:07;94456.91;;;6.28;77.52
6150;BME280;3106;42.670;23.318;2024-03-23T01:22:34;94462.22;;;6.19;77.91
6150;BME280;3106;42.670;23.318;2024-03-23T01:25:01;94456.59;;;6.04;78.76
6150;BME280;3106;42.670;23.318;2024-03-23T01:27:27;94430.22;;;5.82;78.77
6150;BME280;3106;42.670;23.318;2024-03-23T01:29:54;94464.09;;;5.93;78.50
6150;BME280;3106;42.670;23.318;2024-03-23T01:32:25;94461.59;;;5.89;78.91
6150;BME280;3106;42.670;23.318;2024-03-23T01:34:52;94448.31;;;5.72;79.12
6150;BME280;3106;42.670;23.318;2024-03-23T01:37:19;94466.72;;;5.77;79.23
6150;BME280;3106;42.670;23.318;2024-03-23T01:39:46;94458.75;;;5.68;79.79
6150;BME280;3106;42.670;23.318;2024-03-23T01:42:12;94450.91;;;5.55;80.12
6150;BME280;3106;42.670;23.318;2024-03-23T01:44:40;94444.19;;;5.49;79.97
6150;BME280;3106;42.670;23.318;2024-03-23T01:47:06;94441.38;;;5.45;79.73
6150;BME280;3106;42.670;23.318;2024-03-23T01:49:35;94450.59;;;5.48;80.33
6150;BME280;3106;42.670;23.318;2024-03-23T01:52:01;94463.66;;;5.44;79.88
6150;BME280;3106;42.670;23.318;2024-03-23T01:54:31;94456.34;;;5.41;80.58
6150;BME280;3106;42.670;23.318;2024-03-23T01:56:57;94459.00;;;5.41;80.78
6150;BME280;3106;42.670;23.318;2024-03-23T01:59:24;94463.66;;;5.36;81.19
6150;BME280;3106;42.670;23.318;2024-03-23T02:01:49;94463.34;;;5.37;81.66
6150;BME280;3106;42.670;23.318;2024-03-23T02:04:18;94457.28;;;5.37;81.31
6150;BME280;3106;42.670;23.318;2024-03-23T02:06:46;94465.84;;;5.42;81.74
6150;BME280;3106;42.670;23.318;2024-03-23T02:09:12;94442.63;;;5.39;81.31
6150;BME280;3106;42.670;23.318;2024-03-23T02:11:39;94457.78;;;5.47;81.19
6150;BME280;3106;42.670;23.318;2024-03-23T02:14:05;94446.81;;;5.40;81.19
6150;BME280;3106;42.670;23.318;2024-03-23T02:16:34;94467.16;;;5.53;81.12
6150;BME280;3106;42.670;23.318;2024-03-23T02:19:01;94463.25;;;5.59;80.84
6150;BME280;3106;42.670;23.318;2024-03-23T02:21:28;94454.97;;;5.52;80.99
6150;BME280;3106;42.670;23.318;2024-03-23T02:24:00;94451.38;;;5.48;80.58
6150;BME280;3106;42.670;23.318;2024-03-23T02:26:27;94470.72;;;5.49;79.42
6150;BME280;3106;42.670;23.318;2024-03-23T02:28:55;94469.31;;;5.43;79.42
6150;BME280;3106;42.670;23.318;2024-03-23T02:31:23;94469.38;;;5.21;80.36
6150;BME280;3106;42.670;23.318;2024-03-23T02:33:50;94457.16;;;5.03;81.26
6150;BME280;3106;42.670;23.318;2024-03-23T02:36:15;94475.72;;;5.03;82.11
6150;BME280;3106;42.670;23.318;2024-03-23T02:38:42;94474.09;;;4.93;82.74
6150;BME280;3106;42.670;23.318;2024-03-23T02:41:09;94472.25;;;4.94;83.47
6150;BME280;3106;42.670;23.318;2024-03-23T02:43:36;94442.59;;;4.83;83.31
6150;BME280;3106;42.670;23.318;2024-03-23T02:46:01;94465.44;;;5.10;82.94
6150;BME280;3106;42.670;23.318;2024-03-23T02:48:29;94456.69;;;5.01;82.71
6150;BME280;3106;42.670;23.318;2024-03-23T02:50:57;94469.84;;;5.14;82.47
6150;BME280;3106;42.670;23.318;2024-03-23T02:53:23;94460.28;;;5.05;82.61
6150;BME280;3106;42.670;23.318;2024-03-23T02:55:49;94463.09;;;5.00;82.88
6150;BME280;3106;42.670;23.318;2024-03-23T02:58:17;94458.03;;;4.90;83.64
6150;BME280;3106;42.670;23.318;2024-03-23T03:00:45;94453.97;;;4.84;84.44
6150;BME280;3106;42.670;23.318;2024-03-23T03:03:11;94447.09;;;4.74;84.70
6150;BME280;3106;42.670;23.318;2024-03-23T03:05:37;94451.31;;;4.75;85.17
6150;BME280;3106;42.670;23.318;2024-03-23T03:08:05;94442.00;;;4.56;85.72
6150;BME280;3106;42.670;23.318;2024-03-23T03:10:31;94460.88;;;4.63;86.17
6150;BME280;3106;42.670;23.318;2024-03-23T03:13:00;94435.53;;;4.40;86.52
6150;BME280;3106;42.670;23.318;2024-03-23T03:15:27;94462.88;;;4.57;87.07
6150;BME280;3106;42.670;23.318;2024-03-23T03:17:54;94465.38;;;4.62;86.50
6150;BME280;3106;42.670;23.318;2024-03-23T03:20:20;94459.63;;;4.60;87.05
6150;BME280;3106;42.670;23.318;2024-03-23T03:22:49;94449.72;;;4.44;87.07
6150;BME280;3106;42.670;23.318;2024-03-23T03:25:15;94457.00;;;4.39;87.14
6150;BME280;3106;42.670;23.318;2024-03-23T03:27:44;94457.78;;;4.39;87.88
6150;BME280;3106;42.670;23.318;2024-03-23T03:30:11;94445.56;;;4.30;88.01
6150;BME280;3106;42.670;23.318;2024-03-23T03:32:39;94470.34;;;4.55;87.71
6150;BME280;3106;42.670;23.318;2024-03-23T03:35:07;94433.81;;;4.44;87.81
6150;BME280;3106;42.670;23.318;2024-03-23T03:37:34;94454.75;;;4.54;87.82
6150;BME280;3106;42.670;23.318;2024-03-23T03:40:00;94470.63;;;4.54;87.70
6150;BME280;3106;42.670;23.318;2024-03-23T03:42:27;94473.16;;;4.59;87.30
6150;BME280;3106;42.670;23.318;2024-03-23T03:44:53;94463.97;;;4.56;87.07
6150;BME280;3106;42.670;23.318;2024-03-23T03:47:20;94467.97;;;4.54;87.79
6150;BME280;3106;42.670;23.318;2024-03-23T03:49:49;94467.75;;;4.64;87.16
6150;BME280;3106;42.670;23.318;2024-03-23T03:52:16;94467.28;;;4.62;87.07
6150;BME280;3106;42.670;23.318;2024-03-23T03:54:42;94471.63;;;4.66;87.01
6150;BME280;3106;42.670;23.318;2024-03-23T03:57:08;94469.94;;;4.70;86.79
6150;BME280;3106;42.670;23.318;2024-03-23T03:59:34;94467.28;;;4.70;87.06
6150;BME280;3106;42.670;23.318;2024-03-23T04:02:01;94459.00;;;4.63;86.82
6150;BME280;3106;42.670;23.318;2024-03-23T04:04:27;94470.06;;;4.65;86.91
6150;BME280;3106;42.670;23.318;2024-03-23T04:07:00;94471.63;;;4.66;86.84
6150;BME280;3106;42.670;23.318;2024-03-23T04:09:27;94470.03;;;4.57;87.54
6150;BME280;3106;42.670;23.318;2024-03-23T04:11:56;94469.44;;;4.60;87.57
6150;BME280;3106;42.670;23.318;2024-03-23T04:14:22;94466.19;;;4.63;86.99
6150;BME280;3106;42.670;23.318;2024-03-23T04:16:49;94468.34;;;4.61;86.95
6150;BME280;3106;42.670;23.318;2024-03-23T04:19:15;94472.09;;;4.68;87.20
6150;BME280;3106;42.670;23.318;2024-03-23T04:21:41;94468.34;;;4.61;87.09
6150;BME280;3106;42.670;23.318;2024-03-23T04:24:10;94479.41;;;4.63;87.31
6150;BME280;3106;42.670;23.318;2024-03-23T04:26:42;94478.00;;;4.57;87.67
6150;BME280;3106;42.670;23.318;2024-03-23T04:29:08;94481.59;;;4.61;88.16
6150;BME280;3106;42.670;23.318;2024-03-23T04:31:35;94442.22;;;4.38;87.78
6150;BME280;3106;42.670;23.318;2024-03-23T04:34:02;94480.72;;;4.52;87.83
6150;BME280;3106;42.670;23.318;2024-03-23T04:36:28;94485.19;;;4.43;88.12
6150;BME280;3106;42.670;23.318;2024-03-23T04:38:54;94474.31;;;4.44;88.65
6150;BME280;3106;42.670;23.318;2024-03-23T04:41:22;94477.56;;;4.42;87.74
6150;BME280;3106;42.670;23.318;2024-03-23T04:43:50;94469.31;;;4.43;88.16
6150;BME280;3106;42.670;23.318;2024-03-23T04:46:20;94483.38;;;4.52;87.13
6150;BME280;3106;42.670;23.318;2024-03-23T04:48:47;94489.00;;;4.50;87.71
6150;BME280;3106;42.670;23.318;2024-03-23T04:51:35;94494.75;;;4.52;87.09
6150;BME280;3106;42.670;23.318;2024-03-23T04:54:05;94490.72;;;4.55;86.52
6150;BME280;3106;42.670;23.318;2024-03-23T04:56:33;94494.16;;;4.55;86.56
6150;BME280;3106;42.670;23.318;2024-03-23T04:59:01;94493.56;;;4.58;86.52
6150;BME280;3106;42.670;23.318;2024-03-23T05:01:30;94465.13;;;4.42;86.60
6150;BME280;3106;42.670;23.318;2024-03-23T05:03:56;94482.44;;;4.48;86.02
6150;BME280;3106;42.670;23.318;2024-03-23T05:06:23;94500.94;;;4.70;85.73
6150;BME280;3106;42.670;23.318;2024-03-23T05:08:50;94498.44;;;4.73;84.72
6150;BME280;3106;42.670;23.318;2024-03-23T05:11:18;94486.81;;;4.74;84.40
6150;BME280;3106;42.670;23.318;2024-03-23T05:13:56;94493.81;;;4.79;84.26
6150;BME280;3106;42.670;23.318;2024-03-23T05:16:22;94492.13;;;4.83;84.19
6150;BME280;3106;42.670;23.318;2024-03-23T05:18:49;94490.28;;;4.92;83.99
6150;BME280;3106;42.670;23.318;2024-03-23T05:21:14;94473.72;;;5.64;82.09
6150;BME280;3106;42.670;23.318;2024-03-23T05:23:41;94469.47;;;6.73;76.87
6150;BME280;3106;42.670;23.318;2024-03-23T05:26:09;94489.69;;;7.78;71.45
6150;BME280;3106;42.670;23.318;2024-03-23T05:28:36;94484.81;;;8.29;67.46
6150;BME280;3106;42.670;23.318;2024-03-23T05:31:05;94483.94;;;8.90;64.73
6150;BME280;3106;42.670;23.318;2024-03-23T05:33:37;94489.47;;;9.29;61.67
6150;BME280;3106;42.670;23.318;2024-03-23T05:36:05;94466.34;;;9.81;60.23
6150;BME280;3106;42.670;23.318;2024-03-23T05:38:42;94489.81;;;10.24;58.10
6150;BME280;3106;42.670;23.318;2024-03-23T05:41:09;94496.31;;;10.38;56.84
6150;BME280;3106;42.670;23.318;2024-03-23T05:43:36;94490.50;;;10.48;56.06
6150;BME280;3106;42.670;23.318;2024-03-23T05:46:03;94497.66;;;10.71;55.31
6150;BME280;3106;42.670;23.318;2024-03-23T05:48:31;94499.19;;;11.00;54.42
6150;BME280;3106;42.670;23.318;2024-03-23T05:50:57;94498.22;;;11.20;52.90
6150;BME280;3106;42.670;23.318;2024-03-23T05:53:24;94495.53;;;11.20;52.23
6150;BME280;3106;42.670;23.318;2024-03-23T05:55:51;94472.59;;;11.19;52.18
6150;BME280;3106;42.670;23.318;2024-03-23T05:58:26;94496.81;;;11.10;51.62
6150;BME280;3106;42.670;23.318;2024-03-23T06:00:58;94498.53;;;11.03;52.15
6150;BME280;3106;42.670;23.318;2024-03-23T06:03:29;94494.50;;;10.54;53.12
6150;BME280;3106;42.670;23.318;2024-03-23T06:05:56;94475.56;;;9.84;54.61
6150;BME280;3106;42.670;23.318;2024-03-23T06:08:24;94486.16;;;9.32;56.27
6150;BME280;3106;42.670;23.318;2024-03-23T06:10:51;94481.50;;;8.85;58.15
6150;BME280;3106;42.670;23.318;2024-03-23T06:13:20;94490.09;;;8.38;60.74
6150;BME280;3106;42.670;23.318;2024-03-23T06:15:50;94479.50;;;8.00;62.12
6150;BME280;3106;42.670;23.318;2024-03-23T06:18:17;94482.28;;;7.63;64.37
6150;BME280;3106;42.670;23.318;2024-03-23T06:20:46;94477.91;;;7.58;65.27
6150;BME280;3106;42.670;23.318;2024-03-23T06:23:13;94469.69;;;7.43;65.58
6150;BME280;3106;42.670;23.318;2024-03-23T06:25:41;94477.81;;;7.46;66.09
6150;BME280;3106;42.670;23.318;2024-03-23T06:28:06;94478.91;;;7.45;66.37
6150;BME280;3106;42.670;23.318;2024-03-23T06:30:35;94475.16;;;7.46;67.26
6150;BME280;3106;42.670;23.318;2024-03-23T06:33:05;94470.16;;;7.45;66.97
6150;BME280;3106;42.670;23.318;2024-03-23T06:35:34;94477.19;;;7.49;67.47
6150;BME280;3106;42.670;23.318;2024-03-23T06:38:02;94487.84;;;7.70;66.03
6150;BME280;3106;42.670;23.318;2024-03-23T06:40:32;94451.38;;;7.50;66.27
6150;BME280;3106;42.670;23.318;2024-03-23T06:42:59;94458.59;;;7.41;67.00
6150;BME280;3106;42.670;23.318;2024-03-23T06:45:27;94435.97;;;7.27;66.68
6150;BME280;3106;42.670;23.318;2024-03-23T06:47:53;94480.59;;;7.79;65.40
6150;BME280;3106;42.670;23.318;2024-03-23T06:50:21;94466.78;;;7.85;64.97
6150;BME280;3106;42.670;23.318;2024-03-23T06:52:49;94480.97;;;7.98;64.25
6150;BME280;3106;42.670;23.318;2024-03-23T06:55:17;94476.81;;;8.09;64.25
6150;BME280;3106;42.670;23.318;2024-03-23T06:57:43;94469.88;;;8.16;64.06
6150;BME280;3106;42.670;23.318;2024-03-23T07:00:11;94478.72;;;8.29;63.73
6150;BME280;3106;42.670;23.318;2024-03-23T07:02:37;94455.69;;;8.04;63.03
6150;BME280;3106;42.670;23.318;2024-03-23T07:05:05;94474.13;;;8.09;63.69
6150;BME280;3106;42.670;23.318;2024-03-23T07:07:32;94469.25;;;8.11;63.61
6150;BME280;3106;42.670;23.318;2024-03-23T07:10:00;94460.31;;;8.15;63.21
6150;BME280;3106;42.670;23.318;2024-03-23T07:12:28;94446.75;;;8.08;63.59
6150;BME280;3106;42.670;23.318;2024-03-23T07:14:55;94470.97;;;8.36;61.33
6150;BME280;3106;42.670;23.318;2024-03-23T07:17:21;94468.03;;;8.49;62.38
6150;BME280;3106;42.670;23.318;2024-03-23T07:19:48;94460.53;;;8.31;61.20
6150;BME280;3106;42.670;23.318;2024-03-23T07:22:15;94468.13;;;8.41;61.24
6150;BME280;3106;42.670;23.318;2024-03-23T07:24:44;94466.59;;;8.52;60.96
6150;BME280;3106;42.670;23.318;2024-03-23T07:27:09;94450.00;;;8.67;60.19
6150;BME280;3106;42.670;23.318;2024-03-23T07:29:43;94444.53;;;8.51;60.66
6150;BME280;3106;42.670;23.318;2024-03-23T07:32:13;94461.22;;;8.72;60.30
6150;BME280;3106;42.670;23.318;2024-03-23T07:34:40;94454.09;;;8.97;59.87
6150;BME280;3106;42.670;23.318;2024-03-23T07:37:06;94447.44;;;9.14;59.28
6150;BME280;3106;42.670;23.318;2024-03-23T07:39:33;94449.22;;;8.98;59.29
6150;BME280;3106;42.670;23.318;2024-03-23T07:41:59;94439.31;;;8.99;59.42
6150;BME280;3106;42.670;23.318;2024-03-23T07:44:26;94428.31;;;9.12;58.43
6150;BME280;3106;42.670;23.318;2024-03-23T07:46:53;94450.31;;;9.09;58.48
6150;BME280;3106;42.670;23.318;2024-03-23T07:49:20;94435.00;;;9.06;58.51
6150;BME280;3106;42.670;23.318;2024-03-23T07:51:48;94443.56;;;9.36;58.15
6150;BME280;3106;42.670;23.318;2024-03-23T07:54:16;94438.13;;;9.44;57.50
6150;BME280;3106;42.670;23.318;2024-03-23T07:56:44;94439.66;;;9.57;56.67
6150;BME280;3106;42.670;23.318;2024-03-23T07:59:11;94420.66;;;9.59;56.62
6150;BME280;3106;42.670;23.318;2024-03-23T08:01:38;94417.84;;;9.79;56.23
6150;BME280;3106;42.670;23.318;2024-03-23T08:04:09;94432.75;;;9.80;55.88
6150;BME280;3106;42.670;23.318;2024-03-23T08:06:35;94429.88;;;9.73;55.52
6150;BME280;3106;42.670;23.318;2024-03-23T08:09:02;94421.00;;;9.69;55.56
6150;BME280;3106;42.670;23.318;2024-03-23T08:11:29;94440.56;;;9.73;55.56
6150;BME280;3106;42.670;23.318;2024-03-23T08:13:57;94437.00;;;9.81;55.02
6150;BME280;3106;42.670;23.318;2024-03-23T08:16:23;94366.72;;;9.53;54.96
6150;BME280;3106;42.670;23.318;2024-03-23T08:18:53;94433.94;;;10.07;54.61
6150;BME280;3106;42.670;23.318;2024-03-23T08:21:22;94397.00;;;9.97;54.70
6150;BME280;3106;42.670;23.318;2024-03-23T08:23:51;94436.56;;;10.58;53.34
6150;BME280;3106;42.670;23.318;2024-03-23T08:26:17;94393.03;;;10.57;52.87
6150;BME280;3106;42.670;23.318;2024-03-23T08:28:44;94367.50;;;10.60;52.50
6150;BME280;3106;42.670;23.318;2024-03-23T08:31:12;94404.19;;;10.90;51.99
6150;BME280;3106;42.670;23.318;2024-03-23T08:33:40;94394.38;;;10.51;51.74
6150;BME280;3106;42.670;23.318;2024-03-23T08:36:09;94415.50;;;10.84;51.93
6150;BME280;3106;42.670;23.318;2024-03-23T08:38:43;94429.59;;;11.12;52.07
6150;BME280;3106;42.670;23.318;2024-03-23T08:41:11;94417.09;;;11.31;51.33
6150;BME280;3106;42.670;23.318;2024-03-23T08:43:42;94312.13;;;10.91;50.33
6150;BME280;3106;42.670;23.318;2024-03-23T08:46:10;94408.97;;;11.59;49.30
6150;BME280;3106;42.670;23.318;2024-03-23T08:48:39;94388.53;;;11.54;49.34
6150;BME280;3106;42.670;23.318;2024-03-23T08:51:07;94396.31;;;11.75;49.11
6150;BME280;3106;42.670;23.318;2024-03-23T08:53:44;94403.50;;;11.55;48.98
6150;BME280;3106;42.670;23.318;2024-03-23T08:56:12;94397.44;;;11.74;48.78
6150;BME280;3106;42.670;23.318;2024-03-23T08:58:38;94397.75;;;11.88;48.03
6150;BME280;3106;42.670;23.318;2024-03-23T09:01:08;94374.00;;;11.86;48.36
6150;BME280;3106;42.670;23.318;2024-03-23T09:03:35;94339.66;;;11.73;48.64
6150;BME280;3106;42.670;23.318;2024-03-23T09:06:06;94364.78;;;12.02;47.85
6150;BME280;3106;42.670;23.318;2024-03-23T09:08:33;94387.28;;;12.17;47.96
6150;BME280;3106;42.670;23.318;2024-03-23T09:11:06;94383.31;;;12.30;47.58
6150;BME280;3106;42.670;23.318;2024-03-23T09:13:34;94353.78;;;12.26;47.17
6150;BME280;3106;42.670;23.318;2024-03-23T09:16:00;94373.94;;;12.58;47.26
6150;BME280;3106;42.670;23.318;2024-03-23T09:18:27;94375.44;;;12.78;46.75
6150;BME280;3106;42.670;23.318;2024-03-23T09:20:53;94363.00;;;12.89;46.40
6150;BME280;3106;42.670;23.318;2024-03-23T09:23:20;94349.94;;;12.88;45.95
6150;BME280;3106;42.670;23.318;2024-03-23T09:25:46;94357.38;;;12.94;45.75
6150;BME280;3106;42.670;23.318;2024-03-23T09:28:14;94352.25;;;13.08;46.07
6150;BME280;3106;42.670;23.318;2024-03-23T09:30:40;94348.25;;;12.99;46.34
6150;BME280;3106;42.670;23.318;2024-03-23T09:33:08;94344.88;;;12.83;46.54
6150;BME280;3106;42.670;23.318;2024-03-23T09:35:36;94337.19;;;12.81;46.67
6150;BME280;3106;42.670;23.318;2024-03-23T09:38:04;94342.16;;;13.02;46.33
6150;BME280;3106;42.670;23.318;2024-03-23T09:40:31;94332.72;;;13.11;46.08
6150;BME280;3106;42.670;23.318;2024-03-23T09:42:58;94331.56;;;13.35;45.90
6150;BME280;3106;42.670;23.318;2024-03-23T09:45:28;94326.94;;;13.57;45.49
6150;BME280;3106;42.670;23.318;2024-03-23T09:47:57;94286.91;;;13.49;44.71
6150;BME280;3106;42.670;23.318;2024-03-23T09:50:23;94308.13;;;13.57;44.96
6150;BME280;3106;42.670;23.318;2024-03-23T09:52:50;94319.72;;;13.65;44.71
6150;BME280;3106;42.670;23.318;2024-03-23T09:55:16;94315.78;;;13.85;44.16
6150;BME280;3106;42.670;23.318;2024-03-23T09:57:43;94311.41;;;14.03;43.62
6150;BME280;3106;42.670;23.318;2024-03-23T10:00:10;94317.28;;;14.12;44.12
6150;BME280;3106;42.670;23.318;2024-03-23T10:02:41;94307.09;;;14.24;42.95
6150;BME280;3106;42.670;23.318;2024-03-23T10:05:21;94307.94;;;14.32;43.23
6150;BME280;3106;42.670;23.318;2024-03-23T10:07:49;94297.72;;;14.44;42.88
6150;BME280;3106;42.670;23.318;2024-03-23T10:10:15;94283.91;;;14.46;42.57
6150;BME280;3106;42.670;23.318;2024-03-23T10:12:44;94288.56;;;14.52;42.25
6150;BME280;3106;42.670;23.318;2024-03-23T10:15:19;94286.72;;;14.60;42.05
6150;BME280;3106;42.670;23.318;2024-03-23T10:17:51;94243.72;;;14.27;41.59
6150;BME280;3106;42.670;23.318;2024-03-23T10:20:20;94267.16;;;14.63;41.56
6150;BME280;3106;42.670;23.318;2024-03-23T10:22:49;94264.44;;;14.59;41.81
6150;BME280;3106;42.670;23.318;2024-03-23T10:25:17;94267.69;;;14.79;41.00
6150;BME280;3106;42.670;23.318;2024-03-23T10:27:58;94258.06;;;14.78;40.13
6150;BME280;3106;42.670;23.318;2024-03-23T10:30:25;94262.78;;;14.91;39.75
6150;BME280;3106;42.670;23.318;2024-03-23T10:33:06;94225.63;;;14.64;39.34
6150;BME280;3106;42.670;23.318;2024-03-23T10:35:32;94254.38;;;14.96;39.65
6150;BME280;3106;42.670;23.318;2024-03-23T10:37:59;94233.25;;;15.02;38.96
6150;BME280;3106;42.670;23.318;2024-03-23T10:40:26;94247.53;;;15.09;38.46
6150;BME280;3106;42.670;23.318;2024-03-23T10:42:57;94236.84;;;15.19;39.02
6150;BME280;3106;42.670;23.318;2024-03-23T10:45:23;94235.34;;;15.25;38.24
6150;BME280;3106;42.670;23.318;2024-03-23T10:47:51;94235.50;;;15.43;38.49
6150;BME280;3106;42.670;23.318;2024-03-23T10:50:19;94224.00;;;15.53;38.45
6150;BME280;3106;42.670;23.318;2024-03-23T10:52:46;94226.38;;;15.68;38.23
6150;BME280;3106;42.670;23.318;2024-03-23T10:55:15;94216.06;;;15.81;38.32
6150;BME280;3106;42.670;23.318;2024-03-23T10:57:47;94198.66;;;15.64;38.18
6150;BME280;3106;42.670;23.318;2024-03-23T11:00:16;94207.03;;;15.49;37.33
6150;BME280;3106;42.670;23.318;2024-03-23T11:02:42;94198.91;;;15.38;36.59
6150;BME280;3106;42.670;23.318;2024-03-23T11:05:34;94198.59;;;15.54;36.44
6150;BME280;3106;42.670;23.318;2024-03-23T11:08:01;94188.25;;;15.59;36.23
6150;BME280;3106;42.670;23.318;2024-03-23T11:10:29;94180.03;;;15.38;36.93
6150;BME280;3106;42.670;23.318;2024-03-23T11:12:56;94171.69;;;15.61;36.76
6150;BME280;3106;42.670;23.318;2024-03-23T11:15:22;94170.22;;;15.84;35.88
6150;BME280;3106;42.670;23.318;2024-03-23T11:18:03;94161.03;;;15.99;36.99
6150;BME280;3106;42.670;23.318;2024-03-23T11:20:33;94147.94;;;15.94;36.44
6150;BME280;3106;42.670;23.318;2024-03-23T11:23:00;94159.81;;;15.79;36.74
6150;BME280;3106;42.670;23.318;2024-03-23T11:25:27;94121.69;;;15.74;36.38
6150;BME280;3106;42.670;23.318;2024-03-23T11:27:55;94146.38;;;15.93;36.81
6150;BME280;3106;42.670;23.318;2024-03-23T11:30:23;94140.25;;;16.03;36.92
6150;BME280;3106;42.670;23.318;2024-03-23T11:32:51;94140.28;;;16.28;36.50
6150;BME280;3106;42.670;23.318;2024-03-23T11:35:27;94126.81;;;16.31;36.60
6150;BME280;3106;42.670;23.318;2024-03-23T11:38:06;94128.34;;;16.32;36.00
6150;BME280;3106;42.670;23.318;2024-03-23T11:40:33;94124.53;;;16.44;36.08
6150;BME280;3106;42.670;23.318;2024-03-23T11:43:02;94128.00;;;16.37;36.01
6150;BME280;3106;42.670;23.318;2024-03-23T11:45:29;94121.41;;;16.24;36.58
6150;BME280;3106;42.670;23.318;2024-03-23T11:48:08;94110.97;;;16.19;36.46
6150;BME280;3106;42.670;23.318;2024-03-23T11:50:35;94109.88;;;16.34;36.55
6150;BME280;3106;42.670;23.318;2024-03-23T11:53:13;94106.38;;;16.30;36.24
6150;BME280;3106;42.670;23.318;2024-03-23T11:55:41;94105.59;;;16.30;36.42
6150;BME280;3106;42.670;23.318;2024-03-23T11:58:10;94096.38;;;16.34;35.71
6150;BME280;3106;42.670;23.318;2024-03-23T12:00:36;94089.41;;;16.54;35.55
6150;BME280;3106;42.670;23.318;2024-03-23T15:02:11;93870.34;;;17.89;28.27
6150;BME280;3106;42.670;23.318;2024-03-23T15:04:38;93868.81;;;17.88;28.66
6150;BME280;3106;42.670;23.318;2024-03-23T15:07:07;93853.91;;;17.69;29.04
6150;BME280;3106;42.670;23.318;2024-03-23T15:09:33;93855.81;;;17.72;28.81
6150;BME280;3106;42.670;23.318;2024-03-23T15:11:59;93854.78;;;17.56;30.07
6150;BME280;3106;42.670;23.318;2024-03-23T15:14:25;93859.91;;;17.43;29.67
6150;BME280;3106;42.670;23.318;2024-03-23T15:16:52;93848.41;;;17.36;30.28
6150;BME280;3106;42.670;23.318;2024-03-23T15:19:19;93851.09;;;17.29;30.44
6150;BME280;3106;42.670;23.318;2024-03-23T15:21:47;93851.91;;;17.26;30.21
6150;BME280;3106;42.670;23.318;2024-03-23T15:24:13;93848.41;;;17.36;31.11
6150;BME280;3106;42.670;23.318;2024-03-23T15:26:40;93846.81;;;17.38;30.73
6150;BME280;3106;42.670;23.318;2024-03-23T15:29:07;93826.81;;;17.25;32.14
6150;BME280;3106;42.670;23.318;2024-03-23T15:31:37;93856.53;;;17.25;31.46
6150;BME280;3106;42.670;23.318;2024-03-23T15:34:03;93845.81;;;17.15;31.28
6150;BME280;3106;42.670;23.318;2024-03-23T15:36:36;93848.13;;;17.13;31.23
6150;BME280;3106;42.670;23.318;2024-03-23T15:39:03;93836.28;;;17.00;31.60
6150;BME280;3106;42.670;23.318;2024-03-23T15:41:30;93846.34;;;16.96;30.90
6150;BME280;3106;42.670;23.318;2024-03-23T15:43:56;93850.94;;;16.99;30.54
6150;BME280;3106;42.670;23.318;2024-03-23T15:46:24;93847.03;;;17.03;30.51
6150;BME280;3106;42.670;23.318;2024-03-23T15:48:50;93842.00;;;17.09;30.67
6150;BME280;3106;42.670;23.318;2024-03-23T15:51:17;93837.75;;;17.08;30.26
6150;BME280;3106;42.670;23.318;2024-03-23T15:53:44;93848.94;;;17.10;28.20
6150;BME280;3106;42.670;23.318;2024-03-23T15:56:11;93837.81;;;17.01;27.95
6150;BME280;3106;42.670;23.318;2024-03-23T15:58:38;93800.91;;;16.77;28.14
6150;BME280;3106;42.670;23.318;2024-03-23T16:01:05;93848.94;;;17.06;27.80
6150;BME280;3106;42.670;23.318;2024-03-23T16:03:32;93843.59;;;17.03;27.65
6150;BME280;3106;42.670;23.318;2024-03-23T16:06:03;93843.22;;;17.01;27.41
6150;BME280;3106;42.670;23.318;2024-03-23T16:08:29;93842.06;;;16.95;27.91
6150;BME280;3106;42.670;23.318;2024-03-23T16:11:01;93840.56;;;16.87;28.45
6150;BME280;3106;42.670;23.318;2024-03-23T16:13:27;93832.16;;;16.78;28.78
6150;BME280;3106;42.670;23.318;2024-03-23T16:16:04;93771.84;;;16.30;29.22
6150;BME280;3106;42.670;23.318;2024-03-23T16:18:32;93810.00;;;16.43;29.71
6150;BME280;3106;42.670;23.318;2024-03-23T16:21:00;93841.94;;;16.48;30.10
6150;BME280;3106;42.670;23.318;2024-03-23T16:23:26;93822.72;;;16.28;30.32
6150;BME280;3106;42.670;23.318;2024-03-23T16:25:53;93816.63;;;16.14;30.48
6150;BME280;3106;42.670;23.318;2024-03-23T16:28:32;93834.72;;;16.13;30.63
6150;BME280;3106;42.670;23.318;2024-03-23T16:31:04;93817.44;;;15.90;30.83
6150;BME280;3106;42.670;23.318;2024-03-23T16:33:31;93835.16;;;15.94;31.14
6150;BME280;3106;42.670;23.318;2024-03-23T16:35:59;93791.72;;;15.64;31.76
6150;BME280;3106;42.670;23.318;2024-03-23T16:38:26;93826.31;;;15.87;32.09
6150;BME280;3106;42.670;23.318;2024-03-23T16:41:01;93835.56;;;15.86;32.47
6150;BME280;3106;42.670;23.318;2024-03-23T16:43:28;93835.97;;;15.81;32.80
6150;BME280;3106;42.670;23.318;2024-03-23T16:45:59;93824.78;;;15.82;32.77
6150;BME280;3106;42.670;23.318;2024-03-23T16:48:26;93830.19;;;15.75;33.19
6150;BME280;3106;42.670;23.318;2024-03-23T16:50:56;93832.91;;;15.68;33.81
6150;BME280;3106;42.670;23.318;2024-03-23T16:53:22;93825.25;;;15.49;34.02
6150;BME280;3106;42.670;23.318;2024-03-23T16:55:54;93795.97;;;15.27;34.03
6150;BME280;3106;42.670;23.318;2024-03-23T16:58:21;93806.00;;;15.33;34.05
6150;BME280;3106;42.670;23.318;2024-03-23T17:00:49;93817.91;;;15.25;34.41
6150;BME280;3106;42.670;23.318;2024-03-23T17:03:15;93821.75;;;15.17;34.62
6150;BME280;3106;42.670;23.318;2024-03-23T17:05:42;93817.16;;;15.14;34.60
6150;BME280;3106;42.670;23.318;2024-03-23T17:08:08;93790.56;;;14.92;34.97
6150;BME280;3106;42.670;23.318;2024-03-23T17:10:36;93793.66;;;14.87;35.21
6150;BME280;3106;42.670;23.318;2024-03-23T17:13:04;93754.03;;;14.46;35.25